createdAt,value
2022-11-24T00:02:17.420Z,83.23
2022-11-24T00:04:43.981Z,83.33
2022-11-24T00:07:10.501Z,83.16
2022-11-24T00:09:36.966Z,83.14
2022-11-24T00:12:03.531Z,82.93
2022-11-24T00:14:30.068Z,83.44
2022-11-24T00:16:56.666Z,83.51
2022-11-24T00:19:23.177Z,84.43
2022-11-24T00:21:49.795Z,83.43
2022-11-24T00:24:16.222Z,83.54
2022-11-24T00:26:43.270Z,84.27
2022-11-24T00:29:11.192Z,84.75
2022-11-24T00:31:42.514Z,85.04
2022-11-24T00:34:14.359Z,84.47
2022-11-24T00:36:41.637Z,85.11
2022-11-24T00:39:11.902Z,84.73
2022-11-24T00:41:38.798Z,85.89
2022-11-24T00:44:05.805Z,84.32
2022-11-24T00:46:32.408Z,84.67
2022-11-24T00:49:00.555Z,84.75
2022-11-24T00:51:29.773Z,84.58
2022-11-24T00:54:01.010Z,84.98
2022-11-24T00:56:29.626Z,84.88
2022-11-24T00:58:56.331Z,84.89
2022-11-24T01:01:25.196Z,85.21
2022-11-24T01:03:52.056Z,85.72
2022-11-24T01:06:20.901Z,85.57
2022-11-24T01:08:48.009Z,85.63
2022-11-24T01:11:17.584Z,84.64
2022-11-24T01:13:46.051Z,85.41
2022-11-24T01:16:20.892Z,85.32
2022-11-24T01:18:47.744Z,85.24
2022-11-24T01:21:15.548Z,84.90
2022-11-24T01:23:42.017Z,85.33
2022-11-24T01:26:10.800Z,85.25
2022-11-24T01:28:40.625Z,84.38
2022-11-24T01:31:09.824Z,84.49
2022-11-24T01:33:36.783Z,84.41
2022-11-24T01:36:04.923Z,84.85
2022-11-24T01:38:31.489Z,84.79
2022-11-24T01:41:25.180Z,84.38
2022-11-24T01:43:53.453Z,84.67
2022-11-24T01:46:27.284Z,84.69
2022-11-24T01:49:00.251Z,84.84
2022-11-24T01:51:30.675Z,85.07
2022-11-24T01:54:02.530Z,85.00
2022-11-24T01:56:31.260Z,84.90
2022-11-24T01:59:01.330Z,85.47
2022-11-24T02:01:29.293Z,85.75
2022-11-24T02:03:56.736Z,85.85
2022-11-24T02:06:27.423Z,85.17
2022-11-24T02:09:16.467Z,85.17
2022-11-24T02:11:44.618Z,85.43
2022-11-24T02:14:13.766Z,84.79
2022-11-24T02:16:42.744Z,85.08
2022-11-24T02:19:19.315Z,84.67
2022-11-24T02:21:45.687Z,84.59
2022-11-24T02:24:32.977Z,84.76
2022-11-24T02:26:59.615Z,84.83
2022-11-24T02:29:25.980Z,84.91
2022-11-24T02:31:58.253Z,86.27
2022-11-24T02:34:24.609Z,85.09
2022-11-24T02:36:50.966Z,85.54
2022-11-24T02:39:17.627Z,84.96
2022-11-24T02:41:49.564Z,84.67
2022-11-24T02:44:20.138Z,84.68
2022-11-24T02:46:46.548Z,84.96
2022-11-24T02:49:12.929Z,84.53
2022-11-24T02:51:39.310Z,85.20
2022-11-24T02:54:05.746Z,84.88
2022-11-24T02:56:32.233Z,84.72
2022-11-24T02:58:58.688Z,84.44
2022-11-24T03:01:25.130Z,84.52
2022-11-24T03:03:51.563Z,84.48
2022-11-24T03:06:17.995Z,84.11
2022-11-24T03:08:44.466Z,84.81
2022-11-24T03:11:10.812Z,84.22
2022-11-24T03:13:37.276Z,84.56
2022-11-24T03:16:03.888Z,84.62
2022-11-24T03:18:30.286Z,84.63
2022-11-24T03:21:00.188Z,84.25
2022-11-24T03:23:26.618Z,84.22
2022-11-24T03:25:53.039Z,84.49
2022-11-24T03:28:19.464Z,84.55
2022-11-24T03:30:48.423Z,84.68
2022-11-24T03:33:14.830Z,85.19
2022-11-24T03:35:42.201Z,84.63
2022-11-24T03:38:08.594Z,84.24
2022-11-24T03:40:34.975Z,84.36
2022-11-24T03:43:01.442Z,84.62
2022-11-24T03:45:45.411Z,83.98
2022-11-24T03:48:13.234Z,84.59
2022-11-24T03:50:39.671Z,84.03
2022-11-24T03:53:06.117Z,83.58
2022-11-24T03:55:32.752Z,83.99
2022-11-24T03:57:59.169Z,83.88
2022-11-24T04:00:25.605Z,83.72
2022-11-24T04:02:52.019Z,83.65
2022-11-24T04:05:18.514Z,83.83
2022-11-24T04:07:44.987Z,83.74
2022-11-24T04:10:11.368Z,84.36
2022-11-24T04:12:46.520Z,83.58
2022-11-24T04:15:16.229Z,83.71
2022-11-24T04:17:43.293Z,83.68
2022-11-24T04:20:11.033Z,83.35
2022-11-24T04:22:37.769Z,83.34
2022-11-24T04:25:05.486Z,83.31
2022-11-24T04:27:36.254Z,83.47
2022-11-24T04:30:04.462Z,83.65
2022-11-24T04:32:30.808Z,83.20
2022-11-24T04:34:57.124Z,83.43
2022-11-24T04:37:23.541Z,83.34
2022-11-24T04:39:50.010Z,83.35
2022-11-24T04:42:16.356Z,83.60
2022-11-24T04:44:42.679Z,83.60
2022-11-24T04:47:15.948Z,83.55
2022-11-24T04:49:42.368Z,83.27
2022-11-24T04:52:08.704Z,83.79
2022-11-24T04:54:35.461Z,83.21
2022-11-24T04:57:02.142Z,83.42
2022-11-24T04:59:28.960Z,83.70
2022-11-24T05:01:55.336Z,83.32
2022-11-24T05:04:23.254Z,83.27
2022-11-24T05:06:49.655Z,83.70
2022-11-24T05:09:17.441Z,83.46
2022-11-24T05:11:44.075Z,83.10
2022-11-24T05:14:10.468Z,83.05
2022-11-24T05:16:37.752Z,82.98
2022-11-24T05:19:04.346Z,82.66
2022-11-24T05:21:30.676Z,82.61
2022-11-24T05:23:56.989Z,82.33
2022-11-24T05:26:23.413Z,82.48
2022-11-24T05:28:50.065Z,82.46
2022-11-24T05:31:16.452Z,82.58
2022-11-24T05:33:43.257Z,82.86
2022-11-24T05:36:29.997Z,83.10
2022-11-24T05:38:56.394Z,83.24
2022-11-24T05:41:22.851Z,83.48
2022-11-24T05:43:49.212Z,83.94
2022-11-24T05:46:15.618Z,83.50
2022-11-24T05:48:42.125Z,84.13
2022-11-24T05:51:09.486Z,83.47
2022-11-24T05:53:36.105Z,84.77
2022-11-24T05:56:04.086Z,84.15
2022-11-24T05:58:30.595Z,84.63
2022-11-24T06:00:56.919Z,84.77
2022-11-24T06:03:23.741Z,85.78
2022-11-24T06:05:50.137Z,85.47
2022-11-24T06:08:16.512Z,86.00
2022-11-24T06:10:42.861Z,85.99
2022-11-24T06:13:09.431Z,85.82
2022-11-24T06:15:37.583Z,85.93
2022-11-24T06:18:04.163Z,85.88
2022-11-24T06:20:32.879Z,85.94
2022-11-24T06:23:00.082Z,86.51
2022-11-24T06:25:26.875Z,86.00
2022-11-24T06:27:53.188Z,86.31
2022-11-24T06:30:19.615Z,86.74
2022-11-24T06:32:49.690Z,85.38
2022-11-24T06:35:16.567Z,85.42
2022-11-24T06:37:42.968Z,86.98
2022-11-24T06:40:09.896Z,86.20
2022-11-24T06:42:36.996Z,85.67
2022-11-24T06:45:08.788Z,85.58
2022-11-24T06:47:35.912Z,86.56
2022-11-24T06:50:02.236Z,85.72
2022-11-24T06:52:28.618Z,85.90
2022-11-24T06:54:55.096Z,85.29
2022-11-24T06:57:21.540Z,85.57
2022-11-24T06:59:47.896Z,84.86
2022-11-24T07:02:14.322Z,85.66
2022-11-24T07:04:40.663Z,84.62
2022-11-24T07:07:07.156Z,85.16
2022-11-24T07:09:33.518Z,84.77
2022-11-24T07:12:00.170Z,84.63
2022-11-24T07:14:26.614Z,84.86
2022-11-24T07:16:53.125Z,84.28
2022-11-24T07:19:24.497Z,84.19
2022-11-24T07:21:51.569Z,83.57
2022-11-24T07:24:17.962Z,83.86
2022-11-24T07:26:44.294Z,83.49
2022-11-24T07:29:10.641Z,82.73
2022-11-24T07:31:37.067Z,83.07
2022-11-24T07:34:03.536Z,83.06
2022-11-24T07:36:29.998Z,82.71
2022-11-24T07:38:56.352Z,83.17
2022-11-24T07:41:22.845Z,82.42
2022-11-24T07:43:49.531Z,82.65
2022-11-24T07:46:19.017Z,82.51
2022-11-24T07:48:46.039Z,82.31
2022-11-24T07:51:12.920Z,82.46
2022-11-24T07:53:39.513Z,82.36
2022-11-24T07:56:06.719Z,82.15
2022-11-24T07:58:36.041Z,82.55
2022-11-24T08:01:16.953Z,81.29
2022-11-24T08:03:44.735Z,81.78
2022-11-24T08:06:35.386Z,81.63
2022-11-24T08:08:59.778Z,80.84
2022-11-24T08:11:26.995Z,81.35
2022-11-24T08:13:53.478Z,81.03
2022-11-24T08:16:20.390Z,80.70
2022-11-24T08:18:54.808Z,80.69
2022-11-24T08:21:23.323Z,80.57
2022-11-24T08:23:53.413Z,80.27
2022-11-24T08:26:19.770Z,80.19
2022-11-24T08:28:47.283Z,78.71
2022-11-24T08:31:15.230Z,78.85
2022-11-24T08:33:42.003Z,79.41
2022-11-24T08:36:11.270Z,79.36
2022-11-24T08:38:37.698Z,78.98
2022-11-24T08:41:11.557Z,78.06
2022-11-24T08:43:38.437Z,78.92
2022-11-24T08:46:13.601Z,78.59
2022-11-24T08:48:40.314Z,78.07
2022-11-24T08:51:12.610Z,77.97
2022-11-24T08:53:40.462Z,77.61
2022-11-24T08:56:08.272Z,76.77
2022-11-24T08:58:35.050Z,77.75
2022-11-24T09:01:19.792Z,76.88
2022-11-24T09:03:50.806Z,75.68
2022-11-24T09:06:19.750Z,76.36
2022-11-24T09:08:46.075Z,76.04
2022-11-24T09:11:15.115Z,76.67
2022-11-24T09:13:41.760Z,75.71
2022-11-24T09:16:09.501Z,75.48
2022-11-24T09:18:36.207Z,74.89
2022-11-24T09:21:11.517Z,74.44
2022-11-24T09:23:38.887Z,74.48
2022-11-24T09:26:06.742Z,75.06
2022-11-24T09:28:33.420Z,74.95
2022-11-24T09:31:01.737Z,74.90
2022-11-24T09:33:28.828Z,74.41
2022-11-24T09:35:55.211Z,74.57
2022-11-24T09:38:22.796Z,76.39
2022-11-24T09:40:49.688Z,76.93
2022-11-24T09:43:37.961Z,77.06
2022-11-24T09:46:08.751Z,77.13
2022-11-24T09:48:40.735Z,77.94
2022-11-24T09:51:11.581Z,78.19
2022-11-24T09:53:47.149Z,78.79
2022-11-24T09:56:22.795Z,78.76
2022-11-24T09:58:53.316Z,78.27
2022-11-24T10:01:31.586Z,78.73
2022-11-24T10:04:04.238Z,78.86
2022-11-24T10:06:45.451Z,79.18
2022-11-24T10:09:25.707Z,79.42
2022-11-24T10:12:16.016Z,78.93
2022-11-24T10:15:12.167Z,78.67
2022-11-24T10:17:51.967Z,78.98
2022-11-24T10:20:21.857Z,78.50
2022-11-24T10:23:03.288Z,78.67
2022-11-24T10:25:52.877Z,78.70
2022-11-24T10:28:19.229Z,78.92
2022-11-24T10:30:45.600Z,78.47
2022-11-24T10:33:27.121Z,78.95
2022-11-24T10:36:06.387Z,79.16
2022-11-24T10:38:42.384Z,78.98
2022-11-24T10:41:16.562Z,79.37
2022-11-24T10:43:43.236Z,79.17
2022-11-24T10:46:19.620Z,79.44
2022-11-24T10:48:52.965Z,78.94
2022-11-24T10:51:52.931Z,79.05
2022-11-24T10:54:22.108Z,79.10
2022-11-24T10:56:52.494Z,79.67
2022-11-24T10:59:24.969Z,79.07
2022-11-24T11:01:53.117Z,79.69
2022-11-24T11:04:35.521Z,79.10
2022-11-24T11:07:20.156Z,79.66
2022-11-24T11:09:47.938Z,79.09
2022-11-24T11:12:43.808Z,80.00
2022-11-24T11:15:23.025Z,79.14
2022-11-24T11:17:52.307Z,79.68
2022-11-24T11:20:25.058Z,79.63
2022-11-24T11:22:51.530Z,79.13
2022-11-24T11:25:24.884Z,79.39
2022-11-24T11:27:51.297Z,78.55
2022-11-24T11:36:10.903Z,78.10
2022-11-24T11:38:38.781Z,77.93
2022-11-24T11:41:06.970Z,76.74
2022-11-24T11:43:37.595Z,77.93
2022-11-24T11:46:12.375Z,77.03
2022-11-24T11:48:44.085Z,75.58
2022-11-24T11:51:23.431Z,76.50
2022-11-24T11:54:02.708Z,76.44
2022-11-24T11:56:40.323Z,77.13
2022-11-24T11:59:34.262Z,75.54
2022-11-24T12:02:34.670Z,75.53
2022-11-24T12:05:11.626Z,75.34
2022-11-24T12:08:13.363Z,74.50
2022-11-24T12:10:48.078Z,74.82
2022-11-24T12:13:37.595Z,73.98
2022-11-24T12:16:30.840Z,73.71
2022-11-24T12:19:13.790Z,74.38
2022-11-24T12:21:58.708Z,74.83
2022-11-24T12:24:50.558Z,74.22
2022-11-24T12:27:40.714Z,73.63
2022-11-24T12:30:21.904Z,74.36
2022-11-24T12:33:06.249Z,73.34
2022-11-24T12:35:43.253Z,73.67
2022-11-24T12:38:27.732Z,71.68
2022-11-24T12:41:39.795Z,70.37
2022-11-24T12:44:00.901Z,69.85
2022-11-24T12:47:02.794Z,69.32
2022-11-24T12:49:55.371Z,70.65
2022-11-24T12:52:40.018Z,70.64
2022-11-24T12:55:15.378Z,69.93
2022-11-24T12:57:46.977Z,69.24
2022-11-24T13:00:23.767Z,68.79
2022-11-24T13:03:10.169Z,68.58
2022-11-24T13:06:08.719Z,68.92
2022-11-24T13:08:36.928Z,68.44
2022-11-24T13:11:21.392Z,69.53
2022-11-24T13:14:13.767Z,69.82
2022-11-24T13:19:49.725Z,69.95
2022-11-24T13:22:24.012Z,70.27
2022-11-24T13:25:35.634Z,70.27
2022-11-24T13:28:04.159Z,71.47
2022-11-24T13:30:33.199Z,70.97
2022-11-24T13:33:27.290Z,71.28
2022-11-24T13:36:02.834Z,71.13
2022-11-24T13:38:44.475Z,72.13
2022-11-24T13:41:32.138Z,72.01
2022-11-24T13:44:13.850Z,72.09
2022-11-24T13:47:06.691Z,72.53
2022-11-24T13:49:46.454Z,71.96
2022-11-24T13:52:40.521Z,72.08
2022-11-24T13:55:13.051Z,71.69
2022-11-24T13:57:51.533Z,71.99
2022-11-24T14:00:28.645Z,71.94
2022-11-24T14:03:03.524Z,71.86
2022-11-24T14:05:36.723Z,70.87
2022-11-24T14:08:05.657Z,71.29
2022-11-24T14:10:36.118Z,70.80
2022-11-24T14:13:23.816Z,71.62
2022-11-24T14:16:08.463Z,71.48
2022-11-24T14:18:36.974Z,71.41
2022-11-24T14:21:24.684Z,70.96
2022-11-24T14:23:53.122Z,71.07
2022-11-24T14:26:32.937Z,71.26
2022-11-24T14:29:12.646Z,71.05
2022-11-24T14:31:38.957Z,71.92
2022-11-24T14:34:11.109Z,71.82
2022-11-24T14:36:38.908Z,71.06
2022-11-24T14:39:05.815Z,71.52
2022-11-24T14:41:33.744Z,71.01
2022-11-24T14:44:15.117Z,70.81
2022-11-24T14:46:42.133Z,71.35
2022-11-24T14:49:08.662Z,71.40
2022-11-24T14:51:37.646Z,71.00
2022-11-24T14:54:12.254Z,71.04
2022-11-24T14:56:39.691Z,72.39
2022-11-24T14:59:23.795Z,72.88
2022-11-24T15:01:50.521Z,72.92
2022-11-24T15:04:54.824Z,73.31
2022-11-24T15:07:29.423Z,73.12
2022-11-24T15:09:58.355Z,73.94
2022-11-24T15:12:35.916Z,73.53
2022-11-24T15:15:02.300Z,73.33
2022-11-24T15:17:30.320Z,73.65
2022-11-24T15:20:01.993Z,73.42
2022-11-24T15:22:40.065Z,74.04
2022-11-24T15:25:33.403Z,74.27
2022-11-24T15:28:00.982Z,74.35
2022-11-24T15:30:27.396Z,74.81
2022-11-24T15:32:58.341Z,75.99
2022-11-24T15:35:26.818Z,76.16
2022-11-24T15:37:53.211Z,75.80
2022-11-24T15:40:20.272Z,76.03
2022-11-24T15:42:52.266Z,76.57
2022-11-24T15:45:20.305Z,76.22
2022-11-24T15:47:46.858Z,76.60
2022-11-24T15:50:14.287Z,76.56
2022-11-24T15:52:41.765Z,76.84
2022-11-24T15:55:16.565Z,77.08
2022-11-24T15:57:43.262Z,76.76
2022-11-24T16:00:21.378Z,77.49
2022-11-24T16:02:48.086Z,76.38
2022-11-24T16:05:15.904Z,76.81
2022-11-24T16:07:42.478Z,77.30
2022-11-24T16:10:33.652Z,77.44
2022-11-24T16:13:00.049Z,77.09
2022-11-24T16:15:26.518Z,77.28
2022-11-24T16:17:53.144Z,77.74
2022-11-24T16:20:19.879Z,77.28
2022-11-24T16:22:46.366Z,77.46
2022-11-24T16:25:13.497Z,77.69
2022-11-24T16:27:40.284Z,77.65
2022-11-24T16:30:07.832Z,77.42
2022-11-24T16:32:34.879Z,78.29
2022-11-24T16:35:01.194Z,77.73
2022-11-24T16:37:27.532Z,78.99
2022-11-24T16:39:54.005Z,78.42
2022-11-24T16:42:20.364Z,77.74
2022-11-24T16:44:46.697Z,78.24
2022-11-24T16:47:13.052Z,78.31
2022-11-24T16:49:39.644Z,78.65
2022-11-24T16:52:06.068Z,78.38
2022-11-24T16:54:33.002Z,79.85
2022-11-24T16:56:59.676Z,79.23
2022-11-24T16:59:26.098Z,79.96
2022-11-24T17:01:52.622Z,79.90
2022-11-24T17:04:19.080Z,80.20
2022-11-24T17:06:45.527Z,80.17
2022-11-24T17:09:12.209Z,80.51
2022-11-24T17:11:38.559Z,80.32
2022-11-24T17:14:04.897Z,80.40
2022-11-24T17:16:31.716Z,80.58
2022-11-24T17:18:58.726Z,82.26
2022-11-24T17:21:26.806Z,80.65
2022-11-24T17:23:57.287Z,80.47
2022-11-24T17:26:24.830Z,80.83
2022-11-24T17:28:51.362Z,80.10
2022-11-24T17:31:25.149Z,80.08
2022-11-24T17:33:54.311Z,79.80
2022-11-24T17:36:21.694Z,80.09
2022-11-24T17:38:51.395Z,80.07
2022-11-24T17:41:18.983Z,79.97
2022-11-24T17:43:55.931Z,80.63
2022-11-24T17:46:23.724Z,80.33
2022-11-24T17:48:50.357Z,80.54
2022-11-24T17:51:19.371Z,80.59
2022-11-24T17:53:47.462Z,80.41
2022-11-24T17:56:16.455Z,80.47
2022-11-24T17:58:43.537Z,80.70
2022-11-24T18:01:11.014Z,80.62
2022-11-24T18:03:39.167Z,79.94
2022-11-24T18:06:10.535Z,80.50
2022-11-24T18:08:38.328Z,79.95
2022-11-24T18:11:08.251Z,80.65
2022-11-24T18:13:55.880Z,80.47
2022-11-24T18:16:21.231Z,79.46
2022-11-24T18:18:50.428Z,79.58
2022-11-24T18:21:17.674Z,79.39
2022-11-24T18:23:44.716Z,79.34
2022-11-24T18:26:14.858Z,79.91
2022-11-24T18:28:43.073Z,80.58
2022-11-24T18:31:12.309Z,81.13
2022-11-24T18:33:42.575Z,81.24
2022-11-24T18:36:13.750Z,81.62
2022-11-24T18:38:40.286Z,81.07
2022-11-24T18:41:07.509Z,81.42
2022-11-24T18:43:36.106Z,81.80
2022-11-24T18:46:07.634Z,81.67
2022-11-24T18:48:34.502Z,82.50
2022-11-24T18:51:01.008Z,81.77
2022-11-24T18:53:28.019Z,81.79
2022-11-24T18:56:06.471Z,81.77
2022-11-24T18:58:34.319Z,82.30
2022-11-24T19:01:12.889Z,81.66
2022-11-24T19:03:48.679Z,81.83
2022-11-24T19:06:37.632Z,82.04
2022-11-24T19:09:15.553Z,81.75
2022-11-24T19:11:44.119Z,81.39
2022-11-24T19:14:14.079Z,81.39
2022-11-24T19:16:40.931Z,82.41
2022-11-24T19:19:08.046Z,82.13
2022-11-24T19:21:37.390Z,82.13
2022-11-24T19:24:06.007Z,83.49
2022-11-24T19:26:35.008Z,81.97
2022-11-24T19:29:01.801Z,82.00
2022-11-24T19:31:28.340Z,81.45
2022-11-24T19:33:59.890Z,81.08
2022-11-24T19:36:26.484Z,81.46
2022-11-24T19:38:55.292Z,82.10
2022-11-24T19:41:24.213Z,81.07
2022-11-24T19:43:53.359Z,81.69
2022-11-24T19:46:20.569Z,82.32
2022-11-24T19:48:54.521Z,81.62
2022-11-24T19:51:27.331Z,81.57
2022-11-24T19:53:54.248Z,81.35
2022-11-24T19:56:22.527Z,81.05
2022-11-24T19:58:50.160Z,81.84
2022-11-24T20:01:19.799Z,81.42
2022-11-24T20:03:49.404Z,81.06
2022-11-24T20:06:16.367Z,82.03
2022-11-24T20:08:43.271Z,82.24
2022-11-24T20:11:19.479Z,82.29
2022-11-24T20:13:47.222Z,82.28
2022-11-24T20:16:29.530Z,82.26
2022-11-24T20:18:59.336Z,81.44
2022-11-24T20:21:28.713Z,81.35
2022-11-24T20:24:08.486Z,82.19
2022-11-24T20:26:41.157Z,82.13
2022-11-24T20:29:09.810Z,81.84
2022-11-24T20:31:39.491Z,82.02
2022-11-24T20:34:07.131Z,81.74
2022-11-24T20:36:35.927Z,82.40
2022-11-24T20:39:04.879Z,82.95
2022-11-24T20:41:33.866Z,82.08
2022-11-24T20:44:04.956Z,82.17
2022-11-24T20:46:34.112Z,82.66
2022-11-24T20:49:00.627Z,81.69
2022-11-24T20:51:36.246Z,82.17
2022-11-24T20:54:06.055Z,81.85
2022-11-24T20:56:36.813Z,82.59
2022-11-24T20:59:04.632Z,82.01
2022-11-24T21:01:38.367Z,82.33
2022-11-24T21:04:06.608Z,82.94
2022-11-24T21:06:33.358Z,82.93
2022-11-24T21:09:03.693Z,83.97
2022-11-24T21:11:30.959Z,83.88
2022-11-24T21:13:57.527Z,83.18
2022-11-24T21:16:29.812Z,84.09
2022-11-24T21:18:59.530Z,83.84
2022-11-24T21:21:33.228Z,82.78
2022-11-24T21:24:09.804Z,83.56
2022-11-24T21:26:37.867Z,83.08
2022-11-24T21:29:05.137Z,84.11
2022-11-24T21:31:35.820Z,84.55
2022-11-24T21:34:02.538Z,83.83
2022-11-24T21:36:30.786Z,83.74
2022-11-24T21:38:58.871Z,83.66
2022-11-24T21:41:27.722Z,83.80
2022-11-24T21:43:57.513Z,83.26
2022-11-24T21:46:24.563Z,84.38
2022-11-24T21:48:51.301Z,83.86
2022-11-24T21:51:20.413Z,84.73
2022-11-24T21:53:47.524Z,85.11
2022-11-24T21:56:21.496Z,84.27
2022-11-24T21:58:58.050Z,85.00
2022-11-24T22:01:27.821Z,84.49
2022-11-24T22:03:54.881Z,84.84
2022-11-24T22:06:21.653Z,84.95
2022-11-24T22:08:49.285Z,85.33
2022-11-24T22:11:18.968Z,84.65
2022-11-24T22:13:47.082Z,85.33
2022-11-24T22:16:16.261Z,85.12
2022-11-24T22:18:44.028Z,85.17
2022-11-24T22:21:12.814Z,85.48
2022-11-24T22:23:39.331Z,86.65
2022-11-24T22:26:19.434Z,86.67
2022-11-24T22:28:46.370Z,87.68
2022-11-24T22:31:15.638Z,86.97
2022-11-24T22:33:43.587Z,87.86
2022-11-24T22:36:11.174Z,86.93
2022-11-24T22:38:37.917Z,86.46
2022-11-24T22:41:09.138Z,86.39
2022-11-24T22:43:37.104Z,86.70
2022-11-24T22:46:15.079Z,87.06
2022-11-24T22:48:41.980Z,86.93
2022-11-24T22:51:10.690Z,87.92
2022-11-24T22:53:37.653Z,88.25
2022-11-24T22:56:06.115Z,87.80
2022-11-24T22:58:33.802Z,88.62
2022-11-24T23:01:14.435Z,89.70
2022-11-24T23:03:41.656Z,89.30
2022-11-24T23:06:20.223Z,88.84
2022-11-24T23:08:46.901Z,87.93
2022-11-24T23:11:16.177Z,86.99
2022-11-24T23:13:43.532Z,86.35
2022-11-24T23:16:18.219Z,86.37
2022-11-24T23:18:51.089Z,85.34
2022-11-24T23:21:38.565Z,85.52
2022-11-24T23:24:06.866Z,85.36
2022-11-24T23:26:39.227Z,85.55
2022-11-24T23:29:06.541Z,85.50
2022-11-24T23:31:33.430Z,85.09
2022-11-24T23:34:02.510Z,85.08
2022-11-24T23:36:29.873Z,84.92
2022-11-24T23:38:56.829Z,84.76
2022-11-24T23:41:25.523Z,84.78
2022-11-24T23:43:52.458Z,84.25
2022-11-24T23:46:21.638Z,84.50
2022-11-24T23:48:49.127Z,84.66
2022-11-24T23:51:20.663Z,84.49
2022-11-24T23:53:48.353Z,84.73
2022-11-24T23:56:19.789Z,85.15
2022-11-24T23:58:46.968Z,84.82
